sensor_id;sensor_type;location;lat;lon;timestamp;temperature;humidity
54192;DHT22;40101;53.002;6.488;2024-03-08T00:01:35;1.90;99.90
54192;DHT22;40101;53.002;6.488;2024-03-08T00:04:01;1.90;99.90
54192;DHT22;40101;53.002;6.488;2024-03-08T00:06:27;1.90;99.90
54192;DHT22;40101;53.002;6.488;2024-03-08T00:08:52;1.90;99.90
54192;DHT22;40101;53.002;6.488;2024-03-08T00:11:18;1.90;99.90
54192;DHT22;40101;53.002;6.488;2024-03-08T00:13:44;2.00;99.90
54192;DHT22;40101;53.002;6.488;2024-03-08T00:16:10;1.80;99.90
54192;DHT22;40101;53.002;6.488;2024-03-08T00:18:37;1.80;99.90
54192;DHT22;40101;53.002;6.488;2024-03-08T00:21:02;1.80;99.90
54192;DHT22;40101;53.002;6.488;2024-03-08T00:23:28;1.80;99.90
54192;DHT22;40101;53.002;6.488;2024-03-08T00:25:54;1.80;99.90
54192;DHT22;40101;53.002;6.488;2024-03-08T00:28:21;1.80;99.90
54192;DHT22;40101;53.002;6.488;2024-03-08T00:30:47;2.20;99.90
54192;DHT22;40101;53.002;6.488;2024-03-08T00:33:13;1.80;99.90
54192;DHT22;40101;53.002;6.488;2024-03-08T00:35:39;1.80;99.90
54192;DHT22;40101;53.002;6.488;2024-03-08T00:38:04;1.80;99.90
54192;DHT22;40101;53.002;6.488;2024-03-08T00:40:30;1.80;99.90
54192;DHT22;40101;53.002;6.488;2024-03-08T00:42:56;1.70;99.90
54192;DHT22;40101;53.002;6.488;2024-03-08T00:45:21;1.50;99.90
54192;DHT22;40101;53.002;6.488;2024-03-08T00:47:48;1.80;99.90
54192;DHT22;40101;53.002;6.488;2024-03-08T00:50:14;1.70;99.90
54192;DHT22;40101;53.002;6.488;2024-03-08T00:52:42;1.80;99.90
54192;DHT22;40101;53.002;6.488;2024-03-08T00:55:08;1.70;99.90
54192;DHT22;40101;53.002;6.488;2024-03-08T00:57:35;1.70;99.90
54192;DHT22;40101;53.002;6.488;2024-03-08T01:00:03;1.70;99.90
54192;DHT22;40101;53.002;6.488;2024-03-08T01:02:30;1.80;99.90
54192;DHT22;40101;53.002;6.488;2024-03-08T01:04:56;1.70;99.90
54192;DHT22;40101;53.002;6.488;2024-03-08T01:07:22;1.50;99.90
54192;DHT22;40101;53.002;6.488;2024-03-08T01:09:47;1.70;99.90
54192;DHT22;40101;53.002;6.488;2024-03-08T01:12:13;1.70;99.90
54192;DHT22;40101;53.002;6.488;2024-03-08T01:14:40;1.80;99.90
54192;DHT22;40101;53.002;6.488;2024-03-08T01:17:05;1.70;99.90
54192;DHT22;40101;53.002;6.488;2024-03-08T01:19:31;1.70;99.90
54192;DHT22;40101;53.002;6.488;2024-03-08T01:21:58;1.90;99.90
54192;DHT22;40101;53.002;6.488;2024-03-08T01:24:24;1.60;99.90
54192;DHT22;40101;53.002;6.488;2024-03-08T01:26:50;1.70;99.90
54192;DHT22;40101;53.002;6.488;2024-03-08T01:29:24;1.60;99.90
54192;DHT22;40101;53.002;6.488;2024-03-08T01:31:49;1.50;99.90
54192;DHT22;40101;53.002;6.488;2024-03-08T01:34:17;1.60;99.90
54192;DHT22;40101;53.002;6.488;2024-03-08T01:36:43;1.70;99.90
54192;DHT22;40101;53.002;6.488;2024-03-08T01:39:09;1.70;99.90
54192;DHT22;40101;53.002;6.488;2024-03-08T01:41:34;1.60;99.90
54192;DHT22;40101;53.002;6.488;2024-03-08T01:44:01;1.60;99.90
54192;DHT22;40101;53.002;6.488;2024-03-08T01:46:29;1.60;99.90
54192;DHT22;40101;53.002;6.488;2024-03-08T01:48:55;1.60;99.90
54192;DHT22;40101;53.002;6.488;2024-03-08T01:51:21;1.60;99.90
54192;DHT22;40101;53.002;6.488;2024-03-08T01:53:48;1.30;99.90
54192;DHT22;40101;53.002;6.488;2024-03-08T01:56:14;1.60;99.90
54192;DHT22;40101;53.002;6.488;2024-03-08T01:58:43;1.60;99.90
54192;DHT22;40101;53.002;6.488;2024-03-08T02:01:11;1.60;99.90
54192;DHT22;40101;53.002;6.488;2024-03-08T02:03:37;1.50;99.90
54192;DHT22;40101;53.002;6.488;2024-03-08T02:06:03;1.50;99.90
54192;DHT22;40101;53.002;6.488;2024-03-08T02:08:30;1.50;99.90
54192;DHT22;40101;53.002;6.488;2024-03-08T02:10:57;1.50;99.90
54192;DHT22;40101;53.002;6.488;2024-03-08T02:13:22;1.50;99.90
54192;DHT22;40101;53.002;6.488;2024-03-08T02:15:56;1.40;99.90
54192;DHT22;40101;53.002;6.488;2024-03-08T02:18:23;1.40;99.90
54192;DHT22;40101;53.002;6.488;2024-03-08T02:20:59;1.50;99.90
54192;DHT22;40101;53.002;6.488;2024-03-08T02:23:26;1.40;99.90
54192;DHT22;40101;53.002;6.488;2024-03-08T02:25:53;1.40;99.90
54192;DHT22;40101;53.002;6.488;2024-03-08T02:28:19;1.40;99.90
54192;DHT22;40101;53.002;6.488;2024-03-08T02:30:49;1.70;99.90
54192;DHT22;40101;53.002;6.488;2024-03-08T02:33:17;1.40;99.90
54192;DHT22;40101;53.002;6.488;2024-03-08T02:35:44;1.60;99.90
54192;DHT22;40101;53.002;6.488;2024-03-08T02:38:17;1.70;99.90
54192;DHT22;40101;53.002;6.488;2024-03-08T02:40:44;1.30;99.90
54192;DHT22;40101;53.002;6.488;2024-03-08T02:43:11;1.40;99.90
54192;DHT22;40101;53.002;6.488;2024-03-08T02:45:40;1.30;99.90
54192;DHT22;40101;53.002;6.488;2024-03-08T02:48:07;1.60;99.90
54192;DHT22;40101;53.002;6.488;2024-03-08T02:50:34;1.30;99.90
54192;DHT22;40101;53.002;6.488;2024-03-08T02:53:04;1.30;99.90
54192;DHT22;40101;53.002;6.488;2024-03-08T02:55:30;1.30;99.90
54192;DHT22;40101;53.002;6.488;2024-03-08T02:57:56;1.20;99.90
54192;DHT22;40101;53.002;6.488;2024-03-08T03:00:22;1.50;99.90
54192;DHT22;40101;53.002;6.488;2024-03-08T03:02:51;1.20;99.90
54192;DHT22;40101;53.002;6.488;2024-03-08T03:05:20;1.20;99.90
54192;DHT22;40101;53.002;6.488;2024-03-08T03:07:46;1.20;99.90
54192;DHT22;40101;53.002;6.488;2024-03-08T03:10:13;1.10;99.90
54192;DHT22;40101;53.002;6.488;2024-03-08T03:12:42;1.20;99.90
54192;DHT22;40101;53.002;6.488;2024-03-08T03:15:08;1.40;99.90
54192;DHT22;40101;53.002;6.488;2024-03-08T03:17:34;1.10;99.90
54192;DHT22;40101;53.002;6.488;2024-03-08T03:20:00;1.10;99.90
54192;DHT22;40101;53.002;6.488;2024-03-08T03:22:30;1.10;99.90
54192;DHT22;40101;53.002;6.488;2024-03-08T03:24:56;1.10;99.90
54192;DHT22;40101;53.002;6.488;2024-03-08T03:27:23;1.10;99.90
54192;DHT22;40101;53.002;6.488;2024-03-08T03:29:50;1.10;99.90
54192;DHT22;40101;53.002;6.488;2024-03-08T03:32:17;1.10;99.90
54192;DHT22;40101;53.002;6.488;2024-03-08T03:34:44;1.10;99.90
54192;DHT22;40101;53.002;6.488;2024-03-08T03:37:10;1.00;99.90
54192;DHT22;40101;53.002;6.488;2024-03-08T03:39:39;1.00;99.90
54192;DHT22;40101;53.002;6.488;2024-03-08T03:42:18;1.00;99.90
54192;DHT22;40101;53.002;6.488;2024-03-08T03:44:46;1.00;99.90
54192;DHT22;40101;53.002;6.488;2024-03-08T03:47:12;1.00;99.90
54192;DHT22;40101;53.002;6.488;2024-03-08T03:49:38;1.00;99.90
54192;DHT22;40101;53.002;6.488;2024-03-08T03:52:04;1.00;99.90
54192;DHT22;40101;53.002;6.488;2024-03-08T03:54:31;1.00;99.90
54192;DHT22;40101;53.002;6.488;2024-03-08T03:56:58;1.00;99.90
54192;DHT22;40101;53.002;6.488;2024-03-08T03:59:24;1.00;99.90
54192;DHT22;40101;53.002;6.488;2024-03-08T04:01:50;0.90;99.90
54192;DHT22;40101;53.002;6.488;2024-03-08T04:04:16;0.90;99.90
54192;DHT22;40101;53.002;6.488;2024-03-08T04:06:41;0.90;99.90
54192;DHT22;40101;53.002;6.488;2024-03-08T04:09:07;0.80;99.90
54192;DHT22;40101;53.002;6.488;2024-03-08T04:11:33;0.80;99.90
54192;DHT22;40101;53.002;6.488;2024-03-08T04:13:59;1.00;99.90
54192;DHT22;40101;53.002;6.488;2024-03-08T04:16:24;0.80;99.90
54192;DHT22;40101;53.002;6.488;2024-03-08T04:18:51;0.80;99.90
54192;DHT22;40101;53.002;6.488;2024-03-08T04:21:17;0.80;99.90
54192;DHT22;40101;53.002;6.488;2024-03-08T04:23:44;0.80;99.90
54192;DHT22;40101;53.002;6.488;2024-03-08T04:26:11;0.80;99.90
54192;DHT22;40101;53.002;6.488;2024-03-08T04:28:37;0.80;99.90
54192;DHT22;40101;53.002;6.488;2024-03-08T04:31:03;0.80;99.90
54192;DHT22;40101;53.002;6.488;2024-03-08T04:33:29;0.80;99.90
54192;DHT22;40101;53.002;6.488;2024-03-08T04:35:55;0.80;99.90
54192;DHT22;40101;53.002;6.488;2024-03-08T04:38:21;0.70;99.90
54192;DHT22;40101;53.002;6.488;2024-03-08T04:40:47;0.70;99.90
54192;DHT22;40101;53.002;6.488;2024-03-08T04:43:13;0.70;99.90
54192;DHT22;40101;53.002;6.488;2024-03-08T04:45:40;0.70;99.90
54192;DHT22;40101;53.002;6.488;2024-03-08T04:48:07;0.70;99.90
54192;DHT22;40101;53.002;6.488;2024-03-08T04:50:34;0.70;99.90
54192;DHT22;40101;53.002;6.488;2024-03-08T04:53:00;0.70;99.90
54192;DHT22;40101;53.002;6.488;2024-03-08T04:55:25;0.70;99.90
54192;DHT22;40101;53.002;6.488;2024-03-08T04:57:51;0.70;99.90
54192;DHT22;40101;53.002;6.488;2024-03-08T05:00:17;0.80;99.90
54192;DHT22;40101;53.002;6.488;2024-03-08T05:02:42;0.70;99.90
54192;DHT22;40101;53.002;6.488;2024-03-08T05:05:09;0.80;99.90
54192;DHT22;40101;53.002;6.488;2024-03-08T05:07:38;0.90;99.90
54192;DHT22;40101;53.002;6.488;2024-03-08T05:10:05;0.80;99.90
54192;DHT22;40101;53.002;6.488;2024-03-08T05:12:35;0.70;99.90
54192;DHT22;40101;53.002;6.488;2024-03-08T05:15:01;0.70;99.90
54192;DHT22;40101;53.002;6.488;2024-03-08T05:17:27;1.00;99.90
54192;DHT22;40101;53.002;6.488;2024-03-08T05:19:53;0.70;99.90
54192;DHT22;40101;53.002;6.488;2024-03-08T05:22:19;1.10;99.90
54192;DHT22;40101;53.002;6.488;2024-03-08T05:24:44;1.00;99.90
54192;DHT22;40101;53.002;6.488;2024-03-08T05:27:10;0.80;99.90
54192;DHT22;40101;53.002;6.488;2024-03-08T05:29:36;0.60;99.90
54192;DHT22;40101;53.002;6.488;2024-03-08T05:32:03;1.00;99.90
54192;DHT22;40101;53.002;6.488;2024-03-08T05:34:29;0.60;99.90
54192;DHT22;40101;53.002;6.488;2024-03-08T05:36:55;0.60;99.90
54192;DHT22;40101;53.002;6.488;2024-03-08T05:39:21;0.60;99.90
54192;DHT22;40101;53.002;6.488;2024-03-08T05:41:47;0.60;99.90
54192;DHT22;40101;53.002;6.488;2024-03-08T05:44:13;0.60;99.90
54192;DHT22;40101;53.002;6.488;2024-03-08T05:46:39;0.50;99.90
54192;DHT22;40101;53.002;6.488;2024-03-08T05:49:05;0.70;99.90
54192;DHT22;40101;53.002;6.488;2024-03-08T05:51:35;0.60;99.90
54192;DHT22;40101;53.002;6.488;2024-03-08T05:54:05;0.50;99.90
54192;DHT22;40101;53.002;6.488;2024-03-08T05:56:32;0.50;99.90
54192;DHT22;40101;53.002;6.488;2024-03-08T05:58:58;0.50;99.90
54192;DHT22;40101;53.002;6.488;2024-03-08T06:01:27;0.50;99.90
54192;DHT22;40101;53.002;6.488;2024-03-08T06:03:54;0.50;99.90
54192;DHT22;40101;53.002;6.488;2024-03-08T06:06:24;0.50;99.90
54192;DHT22;40101;53.002;6.488;2024-03-08T06:08:50;0.70;99.90
54192;DHT22;40101;53.002;6.488;2024-03-08T06:11:17;0.50;99.90
54192;DHT22;40101;53.002;6.488;2024-03-08T06:13:44;0.50;99.90
54192;DHT22;40101;53.002;6.488;2024-03-08T06:16:10;0.50;99.90
54192;DHT22;40101;53.002;6.488;2024-03-08T06:18:36;0.90;99.90
54192;DHT22;40101;53.002;6.488;2024-03-08T06:21:05;0.50;99.90
54192;DHT22;40101;53.002;6.488;2024-03-08T06:23:32;1.10;99.90
54192;DHT22;40101;53.002;6.488;2024-03-08T06:25:58;0.50;99.90
54192;DHT22;40101;53.002;6.488;2024-03-08T06:28:24;0.50;99.90
54192;DHT22;40101;53.002;6.488;2024-03-08T06:30:49;0.60;99.90
54192;DHT22;40101;53.002;6.488;2024-03-08T06:33:17;0.90;99.90
54192;DHT22;40101;53.002;6.488;2024-03-08T06:35:43;0.90;99.90
54192;DHT22;40101;53.002;6.488;2024-03-08T06:38:09;0.70;99.90
54192;DHT22;40101;53.002;6.488;2024-03-08T06:40:35;0.80;99.90
54192;DHT22;40101;53.002;6.488;2024-03-08T06:43:01;1.00;99.90
54192;DHT22;40101;53.002;6.488;2024-03-08T06:45:26;0.80;99.90
54192;DHT22;40101;53.002;6.488;2024-03-08T06:47:52;1.40;99.90
54192;DHT22;40101;53.002;6.488;2024-03-08T06:50:17;0.90;99.90
54192;DHT22;40101;53.002;6.488;2024-03-08T06:52:43;0.90;99.90
54192;DHT22;40101;53.002;6.488;2024-03-08T06:55:10;1.30;99.90
54192;DHT22;40101;53.002;6.488;2024-03-08T06:57:39;1.00;99.90
54192;DHT22;40101;53.002;6.488;2024-03-08T07:00:07;1.00;99.90
54192;DHT22;40101;53.002;6.488;2024-03-08T07:02:35;1.10;99.90
54192;DHT22;40101;53.002;6.488;2024-03-08T07:05:01;1.30;99.90
54192;DHT22;40101;53.002;6.488;2024-03-08T07:07:27;1.20;99.90
54192;DHT22;40101;53.002;6.488;2024-03-08T07:09:53;1.20;99.90
54192;DHT22;40101;53.002;6.488;2024-03-08T07:12:20;1.30;99.90
54192;DHT22;40101;53.002;6.488;2024-03-08T07:14:46;1.30;99.90
54192;DHT22;40101;53.002;6.488;2024-03-08T07:17:12;1.40;99.90
54192;DHT22;40101;53.002;6.488;2024-03-08T07:19:38;1.90;99.90
54192;DHT22;40101;53.002;6.488;2024-03-08T07:22:04;1.50;99.90
54192;DHT22;40101;53.002;6.488;2024-03-08T07:24:37;1.90;99.90
54192;DHT22;40101;53.002;6.488;2024-03-08T07:27:05;1.60;99.90
54192;DHT22;40101;53.002;6.488;2024-03-08T07:29:34;1.70;99.90
54192;DHT22;40101;53.002;6.488;2024-03-08T07:32:00;2.10;99.90
54192;DHT22;40101;53.002;6.488;2024-03-08T07:34:26;2.10;99.90
54192;DHT22;40101;53.002;6.488;2024-03-08T07:36:52;2.00;99.90
54192;DHT22;40101;53.002;6.488;2024-03-08T07:39:17;2.00;99.90
54192;DHT22;40101;53.002;6.488;2024-03-08T07:41:44;2.30;99.90
54192;DHT22;40101;53.002;6.488;2024-03-08T07:44:10;2.10;99.90
54192;DHT22;40101;53.002;6.488;2024-03-08T07:46:35;2.50;99.90
54192;DHT22;40101;53.002;6.488;2024-03-08T07:49:03;2.70;99.90
54192;DHT22;40101;53.002;6.488;2024-03-08T07:51:28;2.60;99.90
54192;DHT22;40101;53.002;6.488;2024-03-08T07:53:54;3.70;99.90
54192;DHT22;40101;53.002;6.488;2024-03-08T07:56:20;4.60;99.90
54192;DHT22;40101;53.002;6.488;2024-03-08T07:58:47;5.30;99.90
54192;DHT22;40101;53.002;6.488;2024-03-08T08:01:20;5.80;99.90
54192;DHT22;40101;53.002;6.488;2024-03-08T08:03:46;6.70;99.90
54192;DHT22;40101;53.002;6.488;2024-03-08T08:06:15;7.30;99.90
54192;DHT22;40101;53.002;6.488;2024-03-08T08:08:44;7.40;99.90
54192;DHT22;40101;53.002;6.488;2024-03-08T08:11:10;7.80;99.90
54192;DHT22;40101;53.002;6.488;2024-03-08T08:13:41;8.00;99.90
54192;DHT22;40101;53.002;6.488;2024-03-08T08:16:19;7.90;99.90
54192;DHT22;40101;53.002;6.488;2024-03-08T08:18:45;8.00;99.90
54192;DHT22;40101;53.002;6.488;2024-03-08T08:21:11;8.50;99.90
54192;DHT22;40101;53.002;6.488;2024-03-08T08:23:40;8.90;99.90
54192;DHT22;40101;53.002;6.488;2024-03-08T08:26:05;8.50;99.90
54192;DHT22;40101;53.002;6.488;2024-03-08T08:28:33;8.30;99.90
54192;DHT22;40101;53.002;6.488;2024-03-08T08:31:02;8.10;99.90
54192;DHT22;40101;53.002;6.488;2024-03-08T08:33:33;8.20;99.90
54192;DHT22;40101;53.002;6.488;2024-03-08T08:36:00;8.80;99.90
54192;DHT22;40101;53.002;6.488;2024-03-08T08:38:28;8.50;99.90
54192;DHT22;40101;53.002;6.488;2024-03-08T08:40:54;8.50;99.90
54192;DHT22;40101;53.002;6.488;2024-03-08T08:43:19;8.70;99.90
54192;DHT22;40101;53.002;6.488;2024-03-08T08:45:46;8.70;99.90
54192;DHT22;40101;53.002;6.488;2024-03-08T08:48:15;8.10;99.90
54192;DHT22;40101;53.002;6.488;2024-03-08T08:50:41;8.00;99.90
54192;DHT22;40101;53.002;6.488;2024-03-08T08:53:07;8.10;99.90
54192;DHT22;40101;53.002;6.488;2024-03-08T08:55:33;8.40;99.90
54192;DHT22;40101;53.002;6.488;2024-03-08T08:58:01;8.50;99.90
54192;DHT22;40101;53.002;6.488;2024-03-08T09:00:28;8.50;99.90
54192;DHT22;40101;53.002;6.488;2024-03-08T09:02:56;8.50;99.90
54192;DHT22;40101;53.002;6.488;2024-03-08T09:05:23;8.90;99.90
54192;DHT22;40101;53.002;6.488;2024-03-08T09:07:49;8.80;99.90
54192;DHT22;40101;53.002;6.488;2024-03-08T09:10:15;8.70;99.90
54192;DHT22;40101;53.002;6.488;2024-03-08T09:12:41;8.80;99.90
54192;DHT22;40101;53.002;6.488;2024-03-08T09:15:07;8.90;99.90
54192;DHT22;40101;53.002;6.488;2024-03-08T09:17:43;8.90;99.90
54192;DHT22;40101;53.002;6.488;2024-03-08T09:20:10;9.30;99.90
54192;DHT22;40101;53.002;6.488;2024-03-08T09:22:46;9.30;99.90
54192;DHT22;40101;53.002;6.488;2024-03-08T09:25:11;9.10;99.90
54192;DHT22;40101;53.002;6.488;2024-03-08T09:27:37;9.10;99.90
54192;DHT22;40101;53.002;6.488;2024-03-08T09:30:05;9.40;99.90
54192;DHT22;40101;53.002;6.488;2024-03-08T09:32:32;9.10;99.90
54192;DHT22;40101;53.002;6.488;2024-03-08T09:34:58;9.20;99.90
54192;DHT22;40101;53.002;6.488;2024-03-08T09:37:23;9.20;99.90
54192;DHT22;40101;53.002;6.488;2024-03-08T09:39:58;9.50;99.90
54192;DHT22;40101;53.002;6.488;2024-03-08T09:42:24;9.50;99.90
54192;DHT22;40101;53.002;6.488;2024-03-08T09:44:50;9.40;99.90
54192;DHT22;40101;53.002;6.488;2024-03-08T09:47:18;9.20;99.90
54192;DHT22;40101;53.002;6.488;2024-03-08T09:49:43;9.30;99.90
54192;DHT22;40101;53.002;6.488;2024-03-08T09:52:10;9.20;99.90
54192;DHT22;40101;53.002;6.488;2024-03-08T09:54:36;9.00;99.90
54192;DHT22;40101;53.002;6.488;2024-03-08T09:57:04;9.10;99.90
54192;DHT22;40101;53.002;6.488;2024-03-08T09:59:30;9.30;99.90
54192;DHT22;40101;53.002;6.488;2024-03-08T10:02:01;9.40;99.90
54192;DHT22;40101;53.002;6.488;2024-03-08T10:04:28;9.30;99.90
54192;DHT22;40101;53.002;6.488;2024-03-08T10:06:58;9.30;99.90
54192;DHT22;40101;53.002;6.488;2024-03-08T10:09:25;9.10;99.90
54192;DHT22;40101;53.002;6.488;2024-03-08T10:11:59;9.20;99.90
54192;DHT22;40101;53.002;6.488;2024-03-08T10:14:25;9.20;99.90
54192;DHT22;40101;53.002;6.488;2024-03-08T10:16:52;9.30;99.90
54192;DHT22;40101;53.002;6.488;2024-03-08T10:19:18;9.60;99.90
54192;DHT22;40101;53.002;6.488;2024-03-08T10:21:52;9.70;99.90
54192;DHT22;40101;53.002;6.488;2024-03-08T10:24:25;9.90;99.90
54192;DHT22;40101;53.002;6.488;2024-03-08T10:26:52;9.80;99.90
54192;DHT22;40101;53.002;6.488;2024-03-08T10:29:21;9.90;99.90
54192;DHT22;40101;53.002;6.488;2024-03-08T10:31:47;9.90;99.90
54192;DHT22;40101;53.002;6.488;2024-03-08T10:34:13;10.00;99.90
54192;DHT22;40101;53.002;6.488;2024-03-08T10:36:39;9.80;99.90
54192;DHT22;40101;53.002;6.488;2024-03-08T10:39:22;10.00;99.90
54192;DHT22;40101;53.002;6.488;2024-03-08T10:41:58;9.30;99.90
54192;DHT22;40101;53.002;6.488;2024-03-08T10:47:26;8.60;99.90
54192;DHT22;40101;53.002;6.488;2024-03-08T10:50:18;7.90;99.90
54192;DHT22;40101;53.002;6.488;2024-03-08T10:52:52;7.70;99.90
54192;DHT22;40101;53.002;6.488;2024-03-08T10:55:18;7.50;99.90
54192;DHT22;40101;53.002;6.488;2024-03-08T10:57:46;7.10;99.90
54192;DHT22;40101;53.002;6.488;2024-03-08T11:00:16;6.90;99.90
54192;DHT22;40101;53.002;6.488;2024-03-08T11:02:47;6.90;99.90
54192;DHT22;40101;53.002;6.488;2024-03-08T11:05:41;7.00;99.90
54192;DHT22;40101;53.002;6.488;2024-03-08T11:08:18;7.00;99.90
54192;DHT22;40101;53.002;6.488;2024-03-08T11:10:52;7.00;99.90
54192;DHT22;40101;53.002;6.488;2024-03-08T11:13:36;7.10;99.90
54192;DHT22;40101;53.002;6.488;2024-03-08T11:16:02;7.20;99.90
54192;DHT22;40101;53.002;6.488;2024-03-08T11:18:33;7.10;99.90
54192;DHT22;40101;53.002;6.488;2024-03-08T11:21:04;7.50;99.90
54192;DHT22;40101;53.002;6.488;2024-03-08T11:23:38;7.10;99.90
54192;DHT22;40101;53.002;6.488;2024-03-08T11:26:21;7.10;99.90
54192;DHT22;40101;53.002;6.488;2024-03-08T11:32:07;7.30;99.90
54192;DHT22;40101;53.002;6.488;2024-03-08T11:34:35;7.50;99.90
54192;DHT22;40101;53.002;6.488;2024-03-08T11:37:03;7.70;99.90
54192;DHT22;40101;53.002;6.488;2024-03-08T11:39:29;7.50;99.90
54192;DHT22;40101;53.002;6.488;2024-03-08T11:41:56;7.50;99.90
54192;DHT22;40101;53.002;6.488;2024-03-08T11:44:24;7.50;99.90
54192;DHT22;40101;53.002;6.488;2024-03-08T11:46:53;7.50;99.90
54192;DHT22;40101;53.002;6.488;2024-03-08T11:49:19;7.60;99.90
54192;DHT22;40101;53.002;6.488;2024-03-08T11:51:45;7.80;99.90
54192;DHT22;40101;53.002;6.488;2024-03-08T11:54:12;7.70;99.90
54192;DHT22;40101;53.002;6.488;2024-03-08T11:56:38;7.80;99.90
54192;DHT22;40101;53.002;6.488;2024-03-08T11:59:05;7.60;99.90
54192;DHT22;40101;53.002;6.488;2024-03-08T12:01:38;7.90;99.90
54192;DHT22;40101;53.002;6.488;2024-03-08T12:04:04;8.10;99.90
54192;DHT22;40101;53.002;6.488;2024-03-08T12:06:39;8.30;99.90
54192;DHT22;40101;53.002;6.488;2024-03-08T12:09:08;8.60;99.90
54192;DHT22;40101;53.002;6.488;2024-03-08T12:11:35;8.30;99.90
54192;DHT22;40101;53.002;6.488;2024-03-08T12:14:01;8.40;99.90
54192;DHT22;40101;53.002;6.488;2024-03-08T12:16:29;8.60;99.90
54192;DHT22;40101;53.002;6.488;2024-03-08T12:18:55;8.40;99.90
54192;DHT22;40101;53.002;6.488;2024-03-08T12:21:21;8.70;99.90
54192;DHT22;40101;53.002;6.488;2024-03-08T12:24:06;8.40;99.90
54192;DHT22;40101;53.002;6.488;2024-03-08T12:26:38;8.50;99.90
54192;DHT22;40101;53.002;6.488;2024-03-08T12:29:26;8.60;99.90
54192;DHT22;40101;53.002;6.488;2024-03-08T12:31:54;8.50;99.90
54192;DHT22;40101;53.002;6.488;2024-03-08T12:34:21;8.70;99.90
54192;DHT22;40101;53.002;6.488;2024-03-08T12:36:48;8.70;99.90
54192;DHT22;40101;53.002;6.488;2024-03-08T12:39:16;8.70;99.90
54192;DHT22;40101;53.002;6.488;2024-03-08T12:41:43;9.10;99.90
54192;DHT22;40101;53.002;6.488;2024-03-08T12:44:09;9.00;99.90
54192;DHT22;40101;53.002;6.488;2024-03-08T12:46:38;9.20;99.90
54192;DHT22;40101;53.002;6.488;2024-03-08T12:49:09;8.90;99.90
54192;DHT22;40101;53.002;6.488;2024-03-08T12:51:36;8.70;99.90
54192;DHT22;40101;53.002;6.488;2024-03-08T12:54:02;8.90;99.90
54192;DHT22;40101;53.002;6.488;2024-03-08T12:56:30;8.60;99.90
54192;DHT22;40101;53.002;6.488;2024-03-08T12:58:56;8.90;99.90
54192;DHT22;40101;53.002;6.488;2024-03-08T13:01:22;9.20;99.90
54192;DHT22;40101;53.002;6.488;2024-03-08T13:03:50;8.70;99.90
54192;DHT22;40101;53.002;6.488;2024-03-08T13:06:22;8.80;99.90
54192;DHT22;40101;53.002;6.488;2024-03-08T13:08:53;8.70;99.90
54192;DHT22;40101;53.002;6.488;2024-03-08T13:11:19;8.80;99.90
54192;DHT22;40101;53.002;6.488;2024-03-08T13:13:45;9.10;99.90
54192;DHT22;40101;53.002;6.488;2024-03-08T13:16:11;8.80;99.90
54192;DHT22;40101;53.002;6.488;2024-03-08T13:18:41;8.80;99.90
54192;DHT22;40101;53.002;6.488;2024-03-08T13:21:12;8.80;99.90
54192;DHT22;40101;53.002;6.488;2024-03-08T13:23:42;9.20;99.90
54192;DHT22;40101;53.002;6.488;2024-03-08T13:26:12;8.80;99.90
54192;DHT22;40101;53.002;6.488;2024-03-08T13:28:56;8.90;99.90
54192;DHT22;40101;53.002;6.488;2024-03-08T13:31:29;9.10;99.90
54192;DHT22;40101;53.002;6.488;2024-03-08T13:33:55;9.00;99.90
54192;DHT22;40101;53.002;6.488;2024-03-08T13:36:23;9.10;99.90
54192;DHT22;40101;53.002;6.488;2024-03-08T13:38:54;8.80;99.90
54192;DHT22;40101;53.002;6.488;2024-03-08T13:41:23;9.30;99.90
54192;DHT22;40101;53.002;6.488;2024-03-08T13:43:50;8.90;99.90
54192;DHT22;40101;53.002;6.488;2024-03-08T13:46:16;8.90;99.90
54192;DHT22;40101;53.002;6.488;2024-03-08T13:48:42;8.90;99.90
54192;DHT22;40101;53.002;6.488;2024-03-08T13:51:08;8.90;99.90
54192;DHT22;40101;53.002;6.488;2024-03-08T13:53:40;9.10;99.90
54192;DHT22;40101;53.002;6.488;2024-03-08T13:56:06;9.00;99.90
54192;DHT22;40101;53.002;6.488;2024-03-08T13:58:33;8.90;99.90
54192;DHT22;40101;53.002;6.488;2024-03-08T14:01:00;8.90;99.90
54192;DHT22;40101;53.002;6.488;2024-03-08T14:03:28;9.10;99.90
54192;DHT22;40101;53.002;6.488;2024-03-08T14:05:54;9.00;99.90
54192;DHT22;40101;53.002;6.488;2024-03-08T14:08:21;9.30;99.90
54192;DHT22;40101;53.002;6.488;2024-03-08T14:10:47;9.00;99.90
54192;DHT22;40101;53.002;6.488;2024-03-08T14:13:14;9.10;99.90
54192;DHT22;40101;53.002;6.488;2024-03-08T14:15:41;9.30;99.90
54192;DHT22;40101;53.002;6.488;2024-03-08T14:18:08;9.00;99.90
54192;DHT22;40101;53.002;6.488;2024-03-08T14:20:33;9.00;99.90
54192;DHT22;40101;53.002;6.488;2024-03-08T14:22:59;8.90;99.90
54192;DHT22;40101;53.002;6.488;2024-03-08T14:25:25;9.00;99.90
54192;DHT22;40101;53.002;6.488;2024-03-08T14:27:51;9.30;99.90
54192;DHT22;40101;53.002;6.488;2024-03-08T14:30:23;9.40;99.90
54192;DHT22;40101;53.002;6.488;2024-03-08T14:33:07;9.00;99.90
54192;DHT22;40101;53.002;6.488;2024-03-08T14:35:37;9.10;99.90
54192;DHT22;40101;53.002;6.488;2024-03-08T14:38:03;9.30;99.90
54192;DHT22;40101;53.002;6.488;2024-03-08T14:40:30;9.00;99.90
54192;DHT22;40101;53.002;6.488;2024-03-08T14:42:56;9.30;99.90
54192;DHT22;40101;53.002;6.488;2024-03-08T14:45:22;9.00;99.90
54192;DHT22;40101;53.002;6.488;2024-03-08T14:47:50;9.00;99.90
54192;DHT22;40101;53.002;6.488;2024-03-08T14:50:23;8.90;99.90
54192;DHT22;40101;53.002;6.488;2024-03-08T14:52:49;9.10;99.90
54192;DHT22;40101;53.002;6.488;2024-03-08T14:55:19;8.90;99.90
54192;DHT22;40101;53.002;6.488;2024-03-08T14:57:50;8.90;99.90
54192;DHT22;40101;53.002;6.488;2024-03-08T15:00:20;8.80;99.90
54192;DHT22;40101;53.002;6.488;2024-03-08T15:02:55;8.80;99.90
54192;DHT22;40101;53.002;6.488;2024-03-08T15:05:22;8.70;99.90
54192;DHT22;40101;53.002;6.488;2024-03-08T15:07:55;8.70;99.90
54192;DHT22;40101;53.002;6.488;2024-03-08T15:10:21;8.70;99.90
54192;DHT22;40101;53.002;6.488;2024-03-08T15:12:50;8.70;99.90
54192;DHT22;40101;53.002;6.488;2024-03-08T15:15:20;8.60;99.90
54192;DHT22;40101;53.002;6.488;2024-03-08T15:17:46;8.70;99.90
54192;DHT22;40101;53.002;6.488;2024-03-08T15:20:15;8.60;99.90
54192;DHT22;40101;53.002;6.488;2024-03-08T15:22:50;8.60;99.90
54192;DHT22;40101;53.002;6.488;2024-03-08T15:25:20;8.60;99.90
54192;DHT22;40101;53.002;6.488;2024-03-08T15:27:49;8.90;99.90
54192;DHT22;40101;53.002;6.488;2024-03-08T15:30:15;8.50;99.90
54192;DHT22;40101;53.002;6.488;2024-03-08T15:32:48;8.50;99.90
54192;DHT22;40101;53.002;6.488;2024-03-08T15:35:16;8.50;99.90
54192;DHT22;40101;53.002;6.488;2024-03-08T15:37:45;8.50;99.90
54192;DHT22;40101;53.002;6.488;2024-03-08T15:40:12;8.60;99.90
54192;DHT22;40101;53.002;6.488;2024-03-08T15:42:57;8.40;99.90
54192;DHT22;40101;53.002;6.488;2024-03-08T15:45:23;8.40;99.90
54192;DHT22;40101;53.002;6.488;2024-03-08T15:47:49;8.40;99.90
54192;DHT22;40101;53.002;6.488;2024-03-08T15:50:15;8.60;99.90
54192;DHT22;40101;53.002;6.488;2024-03-08T15:52:45;8.40;99.90
54192;DHT22;40101;53.002;6.488;2024-03-08T15:55:16;8.40;99.90